Metler Valley, California
Current Conditions -  °F | °C
As of 6:16 AM on Sunday 21 Dec 2014 (Local Time) from KSDB Reporting Station
Moderate Fog Moderate Fog  
Wind Chill: 39°   Ceiling: 200
Heat Index: 44°   Visibility: 0.5mi
Dew Point: 41°   Wind: 10mph
Humidity: 89%   Direction: 60°ENE
Pressure: 30.23"   Gusts: 23mph
Location:  34.8604°N, 118.583°W
Report Text: KSDB 211416Z AUTO 06009G20KT 1/2SM FG VV002 07/05 A3023 RMK AO2 T00670050 PWINO $
Loading
Personal Weather Stations






























Interactive Weather Map New forecast layout! Learn more

10-Day Weather Forecast

Advertisements
Track Severe Weather on mobile